Baldwin Hills, California
Current Conditions -  °F | °C
As of 1:53 PM on Tuesday 21 Oct 2014 (Local Time) from KLAX Reporting Station
Scattered Clouds Scattered Clouds  
Wind Chill: 72°   Ceiling: Unl
Heat Index: 72°   Visibility: 10mi
Dew Point: 61°   Wind: 14mph
Humidity: 68%   Direction: 250°WSW
Pressure: 29.87"   Gusts: NA
Location:  33.9931°N, 118.373°W
Report Text: KLAX 212053Z 25012KT 10SM SCT180 SCT250 22/16 A2987 RMK AO2 SLP111 T02220161 58019 $
Loading
Personal Weather Stations






























Interactive Weather Map
Tropical Storm Tracking
New forecast layout! Learn more

10-Day Weather Forecast

Advertisements
Track Severe Weather on mobile